Time;durP1;ratioP1;P1;durP2;ratioP2;P2;SDS_P1;SDS_P2;PMS_P1;PMS_P2;Temp;Humidity;BMP_temperature;BMP_pressure;BME280_temperature;BME280_humidity;BME280_pressure;Samples;Min_cycle;Max_cycle;Signal;HPM_P1;HPM_P2
2022/03/22 00:00:49;;;;;;;30.08;17.83;;;9.10;99.90;;;;;;5029982;28;20474;-84
2022/03/22 00:03:16;;;;;;;33.85;19.40;;;9.10;99.90;;;;;;5010449;28;20068;-84
2022/03/22 00:05:44;;;;;;;37.35;20.65;;;9.10;99.90;;;;;;5033620;28;20549;-84
2022/03/22 00:08:11;;;;;;;28.20;17.42;;;9.10;99.90;;;;;;5017916;28;20322;-84
2022/03/22 00:10:38;;;;;;;31.58;18.02;;;9.10;99.90;;;;;;4991135;28;20045;-84
2022/03/22 00:13:05;;;;;;;29.42;18.92;;;9.10;99.90;;;;;;5004255;28;20056;-85
2022/03/22 00:15:32;;;;;;;28.92;17.92;;;9.00;99.90;;;;;;5034392;28;20077;-84
2022/03/22 00:17:58;;;;;;;35.00;20.00;;;9.00;99.90;;;;;;5006718;28;20368;-84
2022/03/22 00:20:23;;;;;;;31.17;19.27;;;9.00;99.90;;;;;;5007575;28;20041;-85
2022/03/22 00:22:50;;;;;;;27.80;17.63;;;9.00;99.90;;;;;;5003101;28;20068;-85
2022/03/22 00:25:16;;;;;;;26.25;17.95;;;9.00;99.90;;;;;;5023302;28;20037;-85
2022/03/22 00:27:52;;;;;;;27.15;17.65;;;9.00;99.90;;;;;;5007675;28;20033;-84
2022/03/22 00:30:25;;;;;;;28.98;17.98;;;9.00;99.90;;;;;;5005815;28;20115;-84
2022/03/22 00:32:54;;;;;;;36.30;19.77;;;8.90;99.90;;;;;;5012828;28;20090;-85
2022/03/22 00:35:28;;;;;;;28.25;17.50;;;8.90;99.90;;;;;;5006986;28;20139;-84
2022/03/22 00:37:56;;;;;;;29.00;18.52;;;8.90;99.90;;;;;;5026191;28;20041;-84
2022/03/22 00:40:27;;;;;;;32.30;18.52;;;8.90;99.90;;;;;;4990642;28;20033;-84
2022/03/22 00:42:53;;;;;;;32.30;19.75;;;8.80;99.90;;;;;;5007604;28;20048;-84
2022/03/22 00:45:21;;;;;;;35.03;19.38;;;8.80;99.90;;;;;;5029256;28;20360;-84
2022/03/22 00:47:49;;;;;;;30.25;18.77;;;8.80;99.90;;;;;;5011791;28;20099;-85
2022/03/22 00:50:17;;;;;;;29.35;18.33;;;8.80;99.90;;;;;;5013694;28;20091;-84
2022/03/22 00:52:43;;;;;;;31.02;20.10;;;8.80;99.90;;;;;;5010297;28;20041;-84
2022/03/22 00:55:12;;;;;;;29.48;18.33;;;8.70;99.90;;;;;;5009070;28;20489;-84
2022/03/22 00:57:38;;;;;;;33.22;19.73;;;8.70;99.90;;;;;;4991392;28;20464;-85
2022/03/22 01:00:08;;;;;;;27.48;17.33;;;8.70;99.90;;;;;;5045432;28;20037;-84
2022/03/22 01:02:42;;;;;;;31.08;18.55;;;8.60;99.90;;;;;;5027443;28;20464;-84
2022/03/22 01:05:11;;;;;;;27.27;18.15;;;8.60;99.90;;;;;;5009495;28;20060;-84
2022/03/22 01:07:38;;;;;;;30.67;18.83;;;8.60;99.90;;;;;;5011152;28;20533;-84
2022/03/22 01:10:06;;;;;;;31.33;19.13;;;8.60;99.90;;;;;;5008535;28;20045;-84
2022/03/22 01:12:36;;;;;;;29.23;17.85;;;8.50;99.90;;;;;;5031454;28;20604;-84
2022/03/22 01:15:10;;;;;;;27.75;17.67;;;8.50;99.90;;;;;;5025989;28;20042;-85
2022/03/22 01:17:38;;;;;;;31.33;18.27;;;8.50;99.90;;;;;;5015586;28;20041;-84
2022/03/22 01:20:09;;;;;;;36.75;21.33;;;8.50;99.90;;;;;;5037799;28;20521;-85
2022/03/22 01:22:35;;;;;;;34.40;19.67;;;8.50;99.90;;;;;;5013110;28;20140;-85
2022/03/22 01:25:00;;;;;;;36.90;20.70;;;8.50;99.90;;;;;;5012587;28;20064;-85
2022/03/22 01:27:26;;;;;;;34.38;19.88;;;8.50;99.90;;;;;;5018047;28;20128;-84
2022/03/22 01:29:52;;;;;;;34.78;19.80;;;8.40;99.90;;;;;;5033549;28;20064;-85
2022/03/22 01:32:18;;;;;;;33.30;19.10;;;8.40;99.90;;;;;;5038337;28;20103;-84
2022/03/22 01:34:43;;;;;;;28.92;18.40;;;8.40;99.90;;;;;;4989833;28;20042;-84
2022/03/22 01:37:10;;;;;;;28.85;17.70;;;8.40;99.90;;;;;;4991959;28;20076;-85
2022/03/22 01:39:36;;;;;;;28.63;17.08;;;8.40;99.90;;;;;;4995412;28;20401;-84
2022/03/22 01:42:03;;;;;;;30.95;18.75;;;8.30;99.90;;;;;;5031982;28;20029;-84
2022/03/22 01:44:29;;;;;;;28.35;17.58;;;8.30;99.90;;;;;;5007931;28;20029;-85
2022/03/22 01:47:03;;;;;;;28.38;17.63;;;8.30;99.90;;;;;;5018123;28;20057;-84
2022/03/22 01:49:29;;;;;;;29.30;17.05;;;8.30;99.90;;;;;;5012888;28;20042;-84
2022/03/22 01:51:56;;;;;;;29.35;16.73;;;8.30;99.90;;;;;;5014131;28;20053;-84
2022/03/22 01:54:22;;;;;;;26.10;16.23;;;8.30;99.90;;;;;;5018024;28;20052;-84
2022/03/22 01:56:49;;;;;;;27.55;17.17;;;8.20;99.90;;;;;;5016525;28;20095;-84
2022/03/22 01:59:15;;;;;;;29.27;17.10;;;8.10;99.90;;;;;;5024859;28;20081;-85
2022/03/22 02:07:13;;;;;;;24.08;15.30;;;8.00;99.90;;;;;;5030784;28;20089;-84
2022/03/22 02:09:38;;;;;;;33.55;19.42;;;8.00;99.90;;;;;;5030342;28;20045;-84
2022/03/22 02:12:05;;;;;;;25.70;16.70;;;7.90;99.90;;;;;;5000721;28;20041;-84
2022/03/22 02:14:30;;;;;;;25.70;16.95;;;7.90;99.90;;;;;;5009104;28;20430;-84
2022/03/22 02:16:56;;;;;;;26.73;16.60;;;7.80;99.90;;;;;;5006528;28;20044;-84
2022/03/22 02:19:22;;;;;;;27.08;17.02;;;7.80;99.90;;;;;;5012316;28;20047;-84
2022/03/22 02:21:54;;;;;;;30.02;17.98;;;7.80;99.90;;;;;;5027451;28;20128;-84
2022/03/22 02:24:20;;;;;;;28.55;17.08;;;7.70;99.90;;;;;;5009026;28;20042;-84
2022/03/22 02:26:46;;;;;;;32.33;18.90;;;7.70;99.90;;;;;;5022679;28;20110;-84
2022/03/22 02:29:11;;;;;;;28.45;17.60;;;7.70;99.90;;;;;;5003559;28;20052;-84
2022/03/22 02:31:38;;;;;;;26.17;16.75;;;7.60;99.90;;;;;;5012147;28;20037;-84
2022/03/22 02:34:04;;;;;;;37.63;20.58;;;7.60;99.90;;;;;;5012932;28;20045;-84
2022/03/22 02:36:29;;;;;;;34.33;17.98;;;7.60;99.90;;;;;;5016379;28;20034;-84
2022/03/22 02:38:55;;;;;;;32.95;18.80;;;7.60;99.90;;;;;;5025111;28;20144;-84
2022/03/22 02:41:24;;;;;;;28.58;17.55;;;7.60;99.90;;;;;;5017610;28;20041;-84
2022/03/22 02:43:51;;;;;;;31.85;19.25;;;7.60;99.90;;;;;;5030623;28;20532;-84
2022/03/22 02:46:16;;;;;;;28.52;18.67;;;7.60;99.90;;;;;;5015650;28;20044;-85
2022/03/22 02:48:43;;;;;;;30.77;19.42;;;7.60;99.90;;;;;;5012698;28;20117;-84
2022/03/22 02:51:10;;;;;;;29.50;18.02;;;7.60;99.90;;;;;;4994692;28;20045;-84
2022/03/22 02:53:36;;;;;;;32.47;18.98;;;7.60;99.90;;;;;;5008852;28;20409;-84
2022/03/22 02:56:02;;;;;;;31.33;18.08;;;7.60;99.90;;;;;;5007087;28;20044;-84
2022/03/22 02:58:28;;;;;;;35.67;19.55;;;7.60;99.90;;;;;;4994739;28;20037;-84
2022/03/22 03:00:54;;;;;;;29.15;18.77;;;7.60;99.90;;;;;;5029980;28;20652;-84
2022/03/22 03:03:22;;;;;;;28.52;18.33;;;7.60;99.90;;;;;;5031480;28;20044;-84
2022/03/22 03:05:52;;;;;;;32.13;18.65;;;7.60;99.90;;;;;;4993659;28;20037;-84
2022/03/22 03:08:18;;;;;;;32.03;19.70;;;7.60;99.90;;;;;;5008704;28;20049;-84
2022/03/22 03:10:45;;;;;;;28.30;18.30;;;7.60;99.90;;;;;;5014788;28;20486;-84
2022/03/22 03:13:11;;;;;;;32.28;18.63;;;7.60;99.90;;;;;;4996424;28;20056;-84
2022/03/22 03:15:37;;;;;;;31.00;17.80;;;7.50;99.90;;;;;;5015284;28;20033;-84
2022/03/22 03:18:03;;;;;;;30.65;18.40;;;7.60;99.90;;;;;;4998595;28;20454;-84
2022/03/22 03:20:29;;;;;;;27.77;17.65;;;7.50;99.90;;;;;;5003538;28;20045;-84
2022/03/22 03:22:56;;;;;;;30.85;17.38;;;7.50;99.90;;;;;;5027618;28;20033;-84
2022/03/22 03:25:22;;;;;;;28.23;17.17;;;7.50;99.90;;;;;;4989336;28;20034;-84
2022/03/22 03:27:47;;;;;;;31.73;18.23;;;7.40;99.90;;;;;;4996094;28;20033;-84
2022/03/22 03:30:14;;;;;;;28.60;17.27;;;7.40;99.90;;;;;;5033293;28;20447;-84
2022/03/22 03:32:39;;;;;;;33.85;18.33;;;7.40;99.90;;;;;;4994270;28;20168;-84
2022/03/22 03:35:05;;;;;;;30.13;18.58;;;7.40;99.90;;;;;;5008577;28;20073;-84
2022/03/22 03:37:35;;;;;;;27.17;17.00;;;7.40;99.90;;;;;;4993303;28;20045;-84
2022/03/22 03:40:04;;;;;;;31.73;18.30;;;7.40;99.90;;;;;;5015663;28;20060;-84
2022/03/22 03:42:29;;;;;;;30.98;18.30;;;7.30;99.90;;;;;;4990332;28;20487;-84
2022/03/22 03:47:39;;;;;;;26.98;17.52;;;7.30;99.90;;;;;;5008387;28;20041;-84
2022/03/22 03:50:06;;;;;;;32.08;19.52;;;7.30;99.90;;;;;;5008636;28;20059;-84
2022/03/22 03:52:34;;;;;;;30.38;17.65;;;7.20;99.90;;;;;;4997142;28;20192;-84
2022/03/22 03:55:01;;;;;;;31.10;18.42;;;7.20;99.90;;;;;;5005054;28;20041;-84
2022/03/22 03:57:27;;;;;;;28.75;17.38;;;7.20;99.90;;;;;;5009568;28;20095;-84
2022/03/22 03:59:55;;;;;;;29.48;17.17;;;7.20;99.90;;;;;;5013058;28;20052;-84
2022/03/22 04:02:21;;;;;;;26.92;17.67;;;7.10;99.90;;;;;;5013184;28;20092;-84
2022/03/22 04:04:51;;;;;;;32.50;19.40;;;7.10;99.90;;;;;;5004389;28;20045;-84
2022/03/22 04:07:18;;;;;;;33.60;18.55;;;7.10;99.90;;;;;;5028408;28;20092;-84
2022/03/22 04:09:44;;;;;;;31.35;18.70;;;7.10;99.90;;;;;;5006957;28;20502;-84
2022/03/22 04:12:12;;;;;;;33.22;18.20;;;7.10;99.90;;;;;;4994094;28;20117;-84
2022/03/22 04:14:38;;;;;;;33.00;19.15;;;7.10;99.90;;;;;;5025146;28;20108;-84
2022/03/22 04:17:04;;;;;;;30.67;18.60;;;7.00;99.90;;;;;;5014121;28;20465;-84
2022/03/22 04:19:30;;;;;;;32.20;17.55;;;7.00;99.90;;;;;;5009715;28;20366;-84
2022/03/22 04:21:56;;;;;;;32.38;18.08;;;7.00;99.90;;;;;;5010193;28;20049;-84
2022/03/22 04:24:22;;;;;;;32.47;18.77;;;7.00;99.90;;;;;;5009075;28;20790;-84
2022/03/22 04:26:48;;;;;;;29.13;18.48;;;7.00;99.90;;;;;;4997325;28;20033;-84
2022/03/22 04:34:46;;;;;;;27.27;17.63;;;7.00;99.90;;;;;;5007830;28;20045;-84
2022/03/22 04:37:13;;;;;;;33.60;18.23;;;7.00;99.90;;;;;;5030220;28;20056;-84
2022/03/22 04:39:41;;;;;;;30.15;17.92;;;7.00;99.90;;;;;;5009441;28;20037;-84
2022/03/22 04:42:07;;;;;;;31.48;19.25;;;6.90;99.90;;;;;;5023491;28;20033;-84
2022/03/22 04:44:33;;;;;;;35.92;19.23;;;6.90;99.90;;;;;;5022118;28;20088;-84
2022/03/22 04:46:59;;;;;;;31.48;18.10;;;6.90;99.90;;;;;;5014659;28;20036;-84
2022/03/22 04:49:26;;;;;;;35.65;20.05;;;6.90;99.90;;;;;;4999384;28;20048;-84
2022/03/22 04:57:22;;;;;;;28.52;17.73;;;6.90;99.90;;;;;;5014484;28;20077;-84
2022/03/22 04:59:48;;;;;;;30.52;17.80;;;6.90;99.90;;;;;;4998339;28;20025;-84
2022/03/22 05:02:15;;;;;;;32.95;18.90;;;6.80;99.90;;;;;;5016820;28;20082;-84
2022/03/22 05:04:41;;;;;;;29.88;18.98;;;6.80;99.90;;;;;;5015813;28;20044;-84
2022/03/22 05:07:07;;;;;;;34.28;20.10;;;6.80;99.90;;;;;;5010564;28;20069;-84
2022/03/22 05:09:33;;;;;;;29.85;18.88;;;6.80;99.90;;;;;;5030656;28;20099;-84
2022/03/22 05:12:00;;;;;;;30.48;17.95;;;6.80;99.90;;;;;;5001700;28;20129;-84
2022/03/22 05:14:26;;;;;;;31.17;17.98;;;6.80;99.90;;;;;;5024483;28;20050;-84
2022/03/22 05:16:56;;;;;;;33.05;18.75;;;6.80;99.90;;;;;;5014301;28;20042;-84
2022/03/22 05:19:22;;;;;;;30.38;17.52;;;6.80;99.90;;;;;;5013252;28;20407;-84
2022/03/22 05:21:47;;;;;;;29.52;16.25;;;6.70;99.90;;;;;;5018487;28;20037;-84
2022/03/22 05:24:13;;;;;;;29.85;17.23;;;6.70;99.90;;;;;;5025442;28;20385;-84
2022/03/22 05:26:39;;;;;;;31.00;16.80;;;6.70;99.90;;;;;;5015472;28;20044;-84
2022/03/22 05:29:04;;;;;;;32.10;19.33;;;6.70;99.90;;;;;;5032421;28;20030;-84
2022/03/22 05:31:31;;;;;;;32.53;19.48;;;6.70;99.90;;;;;;5033784;28;20668;-84
2022/03/22 05:33:57;;;;;;;37.00;19.25;;;6.70;99.90;;;;;;5030936;28;20051;-84
2022/03/22 05:36:23;;;;;;;32.60;18.58;;;6.60;99.90;;;;;;5012276;28;20048;-84
2022/03/22 05:38:49;;;;;;;28.40;18.23;;;6.60;99.90;;;;;;5028501;28;20064;-84
2022/03/22 05:41:15;;;;;;;28.10;17.33;;;6.60;99.90;;;;;;5016900;28;20077;-84
2022/03/22 05:43:41;;;;;;;28.80;18.10;;;6.60;99.90;;;;;;5023750;28;20573;-84
2022/03/22 05:46:08;;;;;;;27.85;18.48;;;6.60;99.90;;;;;;5002828;28;20034;-84
2022/03/22 05:48:34;;;;;;;28.83;17.75;;;6.60;99.90;;;;;;5026008;28;20065;-84
2022/03/22 05:50:59;;;;;;;29.73;17.52;;;6.60;99.90;;;;;;5016309;28;20113;-84
2022/03/22 05:53:25;;;;;;;30.88;17.63;;;6.60;99.90;;;;;;5007432;28;20325;-84
2022/03/22 05:55:51;;;;;;;31.80;18.33;;;6.60;99.90;;;;;;5011239;28;20124;-84
2022/03/22 05:58:16;;;;;;;29.38;18.50;;;6.60;99.90;;;;;;5013344;28;20120;-84
2022/03/22 06:00:42;;;;;;;29.35;18.58;;;6.60;99.90;;;;;;5032701;28;20131;-84
2022/03/22 06:03:08;;;;;;;31.95;18.38;;;6.60;99.90;;;;;;5002147;28;20064;-84
2022/03/22 06:05:34;;;;;;;29.30;17.20;;;6.60;99.90;;;;;;5014413;28;20057;-84
2022/03/22 06:08:00;;;;;;;35.13;20.15;;;6.60;99.90;;;;;;5032674;28;20045;-85
2022/03/22 06:10:27;;;;;;;31.13;17.60;;;6.60;99.90;;;;;;5036458;28;20430;-83
2022/03/22 06:12:56;;;;;;;27.48;17.35;;;6.60;99.90;;;;;;5027451;28;20048;-84
2022/03/22 06:15:24;;;;;;;35.47;18.33;;;6.60;99.90;;;;;;5012657;28;20045;-84
2022/03/22 06:17:57;;;;;;;30.25;17.77;;;6.70;99.90;;;;;;5010462;28;20133;-84
2022/03/22 06:20:25;;;;;;;31.60;18.08;;;6.70;99.90;;;;;;5018198;28;20127;-84
2022/03/22 06:22:52;;;;;;;34.28;19.20;;;6.70;99.90;;;;;;5037535;28;20105;-84
2022/03/22 06:25:18;;;;;;;31.05;19.55;;;6.70;99.90;;;;;;5028861;28;20033;-84
2022/03/22 06:27:46;;;;;;;36.58;20.33;;;6.80;99.90;;;;;;4992314;28;20073;-84
2022/03/22 06:30:15;;;;;;;32.60;19.15;;;6.80;99.90;;;;;;5025737;28;20041;-84
2022/03/22 06:32:50;;;;;;;29.30;19.33;;;6.90;99.90;;;;;;5008044;28;20113;-84
2022/03/22 06:35:18;;;;;;;26.13;17.33;;;6.90;99.90;;;;;;5015605;28;20072;-84
2022/03/22 06:37:44;;;;;;;29.83;18.27;;;7.00;99.90;;;;;;4994366;28;20033;-84
2022/03/22 06:40:11;;;;;;;29.02;18.55;;;7.00;99.90;;;;;;5029888;28;20077;-84
2022/03/22 06:42:38;;;;;;;31.13;19.13;;;7.00;99.90;;;;;;5027090;28;20045;-84
2022/03/22 06:45:05;;;;;;;27.73;18.02;;;7.10;99.90;;;;;;5033442;28;20041;-85
2022/03/22 06:47:32;;;;;;;33.03;18.55;;;7.10;99.90;;;;;;5027576;28;20116;-85
2022/03/22 06:49:58;;;;;;;29.50;17.85;;;7.20;99.90;;;;;;5011902;28;20040;-84
2022/03/22 06:52:24;;;;;;;30.27;19.13;;;7.20;99.90;;;;;;5015471;28;20966;-84
2022/03/22 06:54:50;;;;;;;29.95;19.55;;;7.20;99.90;;;;;;4990311;28;20120;-83
2022/03/22 06:57:15;;;;;;;30.70;19.48;;;7.30;99.90;;;;;;5015928;28;20033;-84
2022/03/22 06:59:41;;;;;;;30.00;18.08;;;7.30;99.90;;;;;;5014543;28;20025;-85
2022/03/22 07:02:08;;;;;;;29.27;18.33;;;7.40;99.90;;;;;;5011976;28;20187;-85
2022/03/22 07:04:33;;;;;;;29.33;18.85;;;7.40;99.90;;;;;;5033370;28;20041;-85
2022/03/22 07:06:59;;;;;;;29.35;17.60;;;7.50;99.90;;;;;;5018185;28;20042;-85
2022/03/22 07:09:26;;;;;;;30.13;17.58;;;7.50;99.90;;;;;;5004752;28;20042;-85
2022/03/22 07:11:52;;;;;;;29.15;17.38;;;7.60;99.90;;;;;;5016203;28;20050;-84
2022/03/22 07:14:20;;;;;;;24.27;16.30;;;7.60;99.90;;;;;;5008344;28;20049;-85
2022/03/22 07:16:47;;;;;;;26.95;16.77;;;7.70;99.90;;;;;;5010037;28;20558;-85
2022/03/22 07:19:17;;;;;;;31.42;18.25;;;7.70;99.90;;;;;;5018760;28;20064;-85
2022/03/22 07:21:44;;;;;;;28.42;17.52;;;7.80;99.90;;;;;;5028193;28;20127;-85
2022/03/22 07:24:11;;;;;;;32.63;19.73;;;7.90;99.90;;;;;;5012608;28;20088;-85
2022/03/22 07:26:38;;;;;;;29.63;18.05;;;8.00;99.90;;;;;;5001547;28;20132;-85
2022/03/22 07:29:04;;;;;;;32.42;19.58;;;8.10;99.90;;;;;;5009302;28;20042;-86
2022/03/22 07:31:30;;;;;;;28.70;19.02;;;8.10;99.90;;;;;;5031117;28;20041;-85
2022/03/22 07:33:56;;;;;;;29.08;18.83;;;8.20;99.90;;;;;;5012035;28;20037;-85
2022/03/22 07:36:22;;;;;;;29.17;19.33;;;8.30;99.90;;;;;;5021802;28;20064;-84
2022/03/22 07:38:48;;;;;;;28.13;17.70;;;8.40;99.90;;;;;;4986512;28;20050;-85
2022/03/22 07:41:14;;;;;;;30.02;18.92;;;8.50;99.90;;;;;;4991628;28;20119;-85
2022/03/22 07:43:41;;;;;;;28.48;16.77;;;8.60;99.90;;;;;;5011029;28;20033;-85
2022/03/22 07:46:08;;;;;;;28.15;18.25;;;8.70;99.90;;;;;;4998290;28;20044;-86
2022/03/22 07:48:34;;;;;;;26.67;17.33;;;8.80;99.90;;;;;;5022440;28;20051;-85
2022/03/22 07:53:45;;;;;;;31.58;18.27;;;9.00;99.90;;;;;;5001726;28;20042;-85
2022/03/22 07:56:11;;;;;;;29.02;17.80;;;9.10;99.90;;;;;;5032741;28;20041;-85
2022/03/22 07:58:37;;;;;;;24.90;16.40;;;9.20;99.90;;;;;;4989437;28;20030;-85
2022/03/22 08:01:02;;;;;;;25.30;16.98;;;9.30;99.90;;;;;;5016623;28;20115;-85
2022/03/22 08:03:28;;;;;;;28.27;18.02;;;9.40;99.90;;;;;;5010665;28;20040;-85
2022/03/22 08:05:54;;;;;;;31.50;17.00;;;9.50;99.90;;;;;;5007329;28;20050;-85
2022/03/22 08:08:20;;;;;;;26.75;15.52;;;9.60;99.90;;;;;;5011867;28;20041;-85
2022/03/22 08:10:46;;;;;;;25.98;17.15;;;9.70;99.90;;;;;;4995058;28;20136;-85
2022/03/22 08:13:12;;;;;;;25.42;16.50;;;9.80;99.70;;;;;;5033578;28;20042;-85
2022/03/22 08:15:39;;;;;;;27.38;17.63;;;9.90;98.90;;;;;;4989967;28;20041;-85
2022/03/22 08:18:05;;;;;;;28.15;16.67;;;10.00;98.30;;;;;;5008828;28;20143;-85
2022/03/22 08:20:31;;;;;;;25.55;15.70;;;10.10;97.30;;;;;;5011842;28;20067;-85
2022/03/22 08:23:04;;;;;;;29.15;16.83;;;10.20;96.80;;;;;;5021565;28;20425;-85
2022/03/22 08:25:31;;;;;;;23.10;15.50;;;10.30;95.40;;;;;;5004162;28;20048;-85
2022/03/22 08:28:01;;;;;;;24.42;15.38;;;10.40;94.90;;;;;;5015887;28;20029;-85
2022/03/22 08:30:28;;;;;;;23.92;16.08;;;10.50;94.40;;;;;;5032831;28;20056;-85
2022/03/22 08:32:56;;;;;;;24.40;15.20;;;10.60;93.40;;;;;;5003615;28;20049;-85
2022/03/22 08:35:26;;;;;;;24.85;15.40;;;10.70;92.10;;;;;;5012469;28;20486;-86
2022/03/22 08:37:52;;;;;;;24.20;16.67;;;10.80;90.80;;;;;;5010995;28;20045;-85
2022/03/22 08:40:19;;;;;;;28.60;16.95;;;10.90;90.10;;;;;;5010673;28;20045;-85
2022/03/22 08:42:46;;;;;;;25.92;16.08;;;11.00;89.40;;;;;;4993792;28;20046;-85
2022/03/22 08:45:17;;;;;;;23.20;15.63;;;11.10;86.60;;;;;;5025189;28;20052;-84
2022/03/22 08:47:45;;;;;;;20.30;13.80;;;11.20;84.80;;;;;;5003444;28;20045;-85
2022/03/22 08:50:13;;;;;;;25.05;16.33;;;11.20;86.30;;;;;;5003603;28;20038;-85
2022/03/22 08:52:40;;;;;;;25.02;16.33;;;11.30;86.30;;;;;;5008102;28;20121;-85
2022/03/22 08:55:07;;;;;;;24.55;16.80;;;11.30;85.90;;;;;;5035147;28;20040;-85
2022/03/22 08:57:34;;;;;;;30.83;16.55;;;11.40;84.80;;;;;;5008860;28;20437;-85
2022/03/22 09:00:00;;;;;;;29.25;16.25;;;11.50;84.60;;;;;;5031828;28;20037;-85
2022/03/22 09:02:26;;;;;;;25.95;17.02;;;11.60;82.70;;;;;;5005029;28;20129;-85
2022/03/22 09:07:35;;;;;;;27.15;15.98;;;11.80;80.50;;;;;;5011465;28;20062;-85
2022/03/22 09:10:01;;;;;;;26.35;16.13;;;11.90;78.70;;;;;;5008562;28;20047;-85
2022/03/22 09:12:27;;;;;;;22.67;14.80;;;12.00;80.10;;;;;;5025544;28;20549;-85
2022/03/22 09:14:53;;;;;;;25.83;17.02;;;12.10;79.90;;;;;;5020725;28;20411;-85
2022/03/22 09:17:20;;;;;;;24.70;15.60;;;12.20;80.30;;;;;;4999770;28;20037;-85
2022/03/22 09:19:46;;;;;;;23.55;15.90;;;12.30;79.20;;;;;;5011385;28;20045;-86
2022/03/22 09:22:12;;;;;;;23.98;15.63;;;12.40;77.70;;;;;;5006554;28;20041;-85
2022/03/22 09:24:38;;;;;;;25.15;14.93;;;12.50;77.90;;;;;;5025835;28;20037;-85
2022/03/22 09:27:04;;;;;;;22.75;14.82;;;12.60;76.40;;;;;;5012704;28;20394;-86
2022/03/22 09:29:29;;;;;;;27.35;15.15;;;12.70;76.80;;;;;;4999190;28;20048;-85
2022/03/22 09:31:55;;;;;;;23.33;14.88;;;12.80;76.80;;;;;;5033695;28;20038;-86
2022/03/22 09:34:25;;;;;;;24.40;15.25;;;12.90;76.40;;;;;;5014538;28;20502;-86
2022/03/22 09:36:51;;;;;;;27.08;17.60;;;13.00;76.40;;;;;;4994789;28;20042;-86
2022/03/22 09:39:19;;;;;;;26.05;15.48;;;13.10;75.70;;;;;;5029030;28;20038;-86
2022/03/22 09:41:46;;;;;;;23.58;15.50;;;13.20;74.90;;;;;;5032564;28;20065;-86
2022/03/22 09:44:15;;;;;;;23.00;15.82;;;13.30;74.60;;;;;;4995168;28;20030;-86
2022/03/22 09:46:48;;;;;;;27.60;16.10;;;13.40;74.20;;;;;;4992347;28;20037;-86
2022/03/22 09:49:16;;;;;;;23.33;15.05;;;13.50;74.40;;;;;;5025601;28;20474;-85
2022/03/22 09:51:45;;;;;;;24.60;16.20;;;13.70;74.40;;;;;;5020945;28;20397;-85
2022/03/22 09:54:22;;;;;;;20.52;13.63;;;13.70;74.60;;;;;;4995254;28;20045;-85
2022/03/22 09:56:49;;;;;;;24.52;15.18;;;13.90;74.40;;;;;;5031642;28;20030;-85
2022/03/22 09:59:15;;;;;;;24.63;15.80;;;14.00;73.80;;;;;;5012273;28;20321;-85
2022/03/22 10:01:41;;;;;;;21.60;14.77;;;14.10;73.70;;;;;;5035092;28;20044;-85
2022/03/22 10:04:12;;;;;;;23.30;15.70;;;14.20;72.60;;;;;;4989185;28;20033;-85
2022/03/22 10:07:02;;;;;;;23.88;14.13;;;14.30;72.70;;;;;;5032216;28;20132;-85
2022/03/22 10:09:33;;;;;;;23.92;15.27;;;14.30;73.00;;;;;;5036677;28;20526;-86
2022/03/22 10:11:59;;;;;;;23.40;16.02;;;14.50;71.80;;;;;;5017694;28;20049;-86
2022/03/22 10:14:34;;;;;;;22.17;14.98;;;14.70;71.40;;;;;;5014544;28;20104;-86
2022/03/22 10:17:09;;;;;;;23.90;14.90;;;14.80;71.40;;;;;;5028090;28;20120;-86
2022/03/22 10:19:44;;;;;;;20.98;14.57;;;14.90;71.00;;;;;;5019193;28;20037;-86
2022/03/22 10:22:10;;;;;;;27.17;16.10;;;15.00;70.20;;;;;;5013481;28;20076;-86
2022/03/22 10:24:47;;;;;;;23.63;14.95;;;15.10;70.00;;;;;;4996451;28;20128;-86
2022/03/22 10:27:26;;;;;;;22.25;13.80;;;15.20;68.30;;;;;;5014788;28;20033;-86
2022/03/22 10:29:52;;;;;;;24.25;15.07;;;15.30;68.40;;;;;;5014280;28;20025;-86
2022/03/22 10:32:28;;;;;;;22.27;14.07;;;15.50;68.10;;;;;;4998360;28;20512;-86
2022/03/22 10:34:54;;;;;;;24.25;14.50;;;15.60;66.40;;;;;;5000517;28;20128;-86
2022/03/22 10:37:27;;;;;;;21.05;13.52;;;15.60;65.70;;;;;;5026854;28;20159;-86
2022/03/22 10:39:52;;;;;;;20.10;13.60;;;15.70;64.10;;;;;;5011057;28;20029;-86
2022/03/22 10:42:22;;;;;;;18.67;12.45;;;15.90;63.30;;;;;;5004419;28;20084;-86
2022/03/22 10:44:50;;;;;;;18.08;12.15;;;16.00;62.90;;;;;;5039032;28;20075;-86
2022/03/22 10:47:27;;;;;;;22.17;15.15;;;16.10;61.90;;;;;;5009922;28;20030;-86
2022/03/22 10:50:07;;;;;;;21.98;13.52;;;16.20;60.60;;;;;;5007229;28;20295;-86
2022/03/22 10:52:33;;;;;;;23.63;14.43;;;16.30;60.10;;;;;;5018552;28;20425;-86
2022/03/22 10:54:59;;;;;;;24.02;14.88;;;16.40;60.00;;;;;;5009398;28;20042;-86
2022/03/22 10:57:32;;;;;;;17.33;12.98;;;16.50;59.50;;;;;;5026540;28;20528;-85
2022/03/22 11:00:08;;;;;;;17.67;11.95;;;16.70;60.90;;;;;;5012502;28;20462;-85
2022/03/22 11:02:37;;;;;;;20.58;12.15;;;16.80;58.70;;;;;;5030095;28;20072;-85
2022/03/22 11:05:04;;;;;;;18.30;11.77;;;16.90;58.40;;;;;;5024728;28;20052;-86
2022/03/22 11:07:34;;;;;;;18.88;12.68;;;17.00;57.50;;;;;;5029001;28;20049;-86
2022/03/22 11:10:01;;;;;;;19.70;11.63;;;17.10;57.50;;;;;;5011070;28;20041;-86
2022/03/22 11:12:30;;;;;;;21.00;12.70;;;17.20;57.60;;;;;;5007906;28;20453;-85
2022/03/22 11:14:58;;;;;;;17.88;12.45;;;17.30;57.10;;;;;;5021214;28;20505;-85
2022/03/22 11:17:27;;;;;;;17.75;11.60;;;17.50;56.50;;;;;;5028798;28;20049;-86
2022/03/22 11:19:54;;;;;;;17.73;12.07;;;17.60;56.20;;;;;;5028664;28;20102;-86
2022/03/22 11:22:19;;;;;;;20.23;13.02;;;17.60;55.50;;;;;;5025435;28;20096;-86
2022/03/22 11:24:45;;;;;;;19.05;12.75;;;17.80;54.80;;;;;;5025521;28;20029;-87
2022/03/22 11:27:11;;;;;;;19.05;11.65;;;17.80;54.50;;;;;;5025714;28;20029;-86
2022/03/22 11:29:41;;;;;;;19.17;13.90;;;18.00;55.10;;;;;;5011378;28;20112;-86
2022/03/22 11:34:57;;;;;;;20.05;12.77;;;18.20;54.40;;;;;;5028163;28;20049;-86
2022/03/22 11:37:34;;;;;;;19.83;13.20;;;18.20;53.80;;;;;;4991728;28;20049;-86
2022/03/22 11:42:57;;;;;;;21.50;13.73;;;18.30;53.50;;;;;;5026772;28;20427;-86
2022/03/22 11:45:24;;;;;;;19.20;12.70;;;18.40;53.10;;;;;;5009709;28;20037;-86
2022/03/22 11:47:53;;;;;;;20.25;13.13;;;18.50;53.00;;;;;;5015415;28;20094;-86
2022/03/22 11:50:21;;;;;;;19.58;13.75;;;18.40;52.10;;;;;;5027365;28;20037;-85
2022/03/22 11:52:50;;;;;;;20.08;13.80;;;18.50;52.30;;;;;;5009655;28;20043;-85
2022/03/22 11:55:25;;;;;;;21.33;13.43;;;18.50;52.30;;;;;;5006804;28;20042;-86
2022/03/22 11:58:04;;;;;;;19.50;13.00;;;18.60;51.80;;;;;;5010205;28;20419;-86
2022/03/22 12:00:51;;;;;;;19.55;13.20;;;18.60;52.00;;;;;;4996481;28;20030;-86
2022/03/22 12:03:21;;;;;;;19.75;13.85;;;18.70;51.50;;;;;;5018609;28;20042;-86
2022/03/22 12:05:47;;;;;;;21.77;13.13;;;18.80;52.40;;;;;;5027620;28;20034;-86
2022/03/22 12:08:14;;;;;;;22.17;13.02;;;18.90;51.80;;;;;;5008643;28;20057;-85
2022/03/22 12:10:45;;;;;;;18.83;13.05;;;19.10;52.20;;;;;;5013238;28;20105;-86
2022/03/22 12:13:10;;;;;;;18.88;13.00;;;19.20;51.50;;;;;;5021206;28;20041;-86
2022/03/22 12:15:36;;;;;;;15.93;12.02;;;19.20;51.80;;;;;;4996841;28;20041;-86
2022/03/22 12:18:02;;;;;;;17.65;12.73;;;19.40;51.60;;;;;;5029219;28;20374;-86
2022/03/22 12:20:27;;;;;;;19.40;12.73;;;19.50;51.40;;;;;;5012789;28;20046;-86
2022/03/22 12:23:00;;;;;;;19.23;14.05;;;19.70;51.00;;;;;;4997236;28;20034;-85
2022/03/22 12:25:35;;;;;;;20.83;13.95;;;19.90;49.80;;;;;;5011644;28;20402;-86
2022/03/22 12:28:09;;;;;;;18.50;12.35;;;20.10;48.70;;;;;;5009491;28;20124;-86
2022/03/22 12:30:45;;;;;;;18.02;12.80;;;20.20;49.10;;;;;;4999799;28;20125;-86
2022/03/22 12:33:18;;;;;;;21.40;13.25;;;20.40;48.40;;;;;;4990513;28;20118;-86
2022/03/22 12:35:45;;;;;;;23.05;14.20;;;20.60;49.70;;;;;;5012865;28;20107;-86
2022/03/22 12:38:11;;;;;;;18.38;12.40;;;20.80;47.80;;;;;;4993783;28;20474;-86
2022/03/22 12:40:38;;;;;;;20.85;12.93;;;21.20;47.10;;;;;;4992311;28;20052;-86
2022/03/22 12:43:06;;;;;;;22.08;13.15;;;21.50;46.40;;;;;;5008718;28;20036;-86
2022/03/22 12:45:32;;;;;;;20.35;14.93;;;21.90;45.70;;;;;;5002979;28;20132;-86
2022/03/22 12:47:58;;;;;;;21.60;14.57;;;22.20;44.50;;;;;;5023736;28;20120;-86
2022/03/22 12:50:25;;;;;;;22.55;14.70;;;22.50;43.30;;;;;;5008003;28;20609;-86
2022/03/22 12:52:51;;;;;;;22.42;14.25;;;22.70;41.90;;;;;;5007583;28;20029;-86
2022/03/22 12:55:19;;;;;;;18.40;12.50;;;22.90;41.40;;;;;;5013064;28;20044;-86
2022/03/22 12:57:48;;;;;;;20.70;13.52;;;23.10;40.50;;;;;;4991724;28;20041;-86
2022/03/22 13:00:39;;;;;;;21.33;13.52;;;23.40;40.40;;;;;;5028878;28;20398;-85
2022/03/22 13:03:14;;;;;;;20.63;13.82;;;23.90;39.50;;;;;;5037653;28;20375;-85
2022/03/22 13:05:41;;;;;;;;;;;24.30;39.50;;;;;;5015993;28;20042;-85